createdAt,value
2019-02-16T00:38:42.903Z,4.30
2019-02-16T00:41:31.623Z,4.30
2019-02-16T05:00:42.670Z,2.40
2019-02-16T05:03:31.390Z,2.40
2019-02-16T06:06:52.769Z,1.90
2019-02-16T06:09:34.024Z,1.80
2019-02-16T06:12:15.562Z,1.70
2019-02-16T07:12:58.275Z,2.20
2019-02-16T07:16:05.996Z,2.10
2019-02-16T07:29:11.444Z,2.10
2019-02-16T07:32:00.296Z,2.10
2019-02-16T07:34:41.443Z,2.10
2019-02-16T08:38:39.295Z,2.80
2019-02-16T08:44:49.904Z,3.00
2019-02-16T08:50:34.329Z,3.10
2019-02-16T08:53:34.452Z,3.10
2019-02-16T08:56:34.504Z,3.20
2019-02-16T08:59:34.905Z,3.20
2019-02-16T09:02:35.527Z,3.30
2019-02-16T09:06:04.671Z,3.30
2019-02-16T09:08:50.855Z,3.40
2019-02-16T09:11:43.597Z,3.50
2019-02-16T09:14:51.348Z,3.60
2019-02-16T09:20:59.582Z,3.70
2019-02-16T09:24:08.813Z,3.80
2019-02-16T09:32:15.090Z,4.00
2019-02-16T09:35:22.750Z,4.10
2019-02-16T09:38:25.614Z,4.20
2019-02-16T10:26:13.218Z,5.90
2019-02-16T10:29:20.823Z,6.00
2019-02-16T10:34:57.583Z,6.20
2019-02-16T10:52:40.898Z,7.00
2019-02-16T11:02:10.547Z,7.40
2019-02-16T11:18:17.463Z,8.30
2019-02-16T11:30:11.802Z,8.70
2019-02-16T11:53:11.796Z,9.70
2019-02-16T11:59:13.585Z,10.10
2019-02-16T12:13:57.871Z,10.80
2019-02-16T14:54:03.521Z,13.20
2019-02-16T15:42:12.386Z,12.10
2019-02-16T15:50:43.003Z,12.00
2019-02-16T15:58:44.856Z,11.90
2019-02-16T16:45:12.354Z,10.70
2019-02-16T17:34:20.836Z,10.10
2019-02-16T17:42:58.154Z,10.00
2019-02-16T17:51:28.886Z,9.80
2019-02-16T17:56:35.172Z,9.80
2019-02-16T18:15:10.936Z,9.60
2019-02-16T18:53:59.007Z,9.00
2019-02-16T18:57:06.324Z,9.00
2019-02-16T18:59:59.665Z,9.00
2019-02-16T19:03:07.341Z,8.90
2019-02-16T19:22:16.533Z,8.70
2019-02-16T19:48:05.950Z,8.60
2019-02-16T19:56:12.480Z,8.50
2019-02-16T19:59:12.196Z,8.50
2019-02-16T20:05:27.694Z,8.40
2019-02-16T20:07:56.102Z,8.40
2019-02-16T20:13:37.684Z,8.40
2019-02-16T20:16:23.706Z,8.40
2019-02-16T20:19:25.572Z,8.30
2019-02-16T20:22:33.132Z,8.30
2019-02-16T20:38:45.801Z,8.10
2019-02-16T20:41:56.230Z,8.10
2019-02-16T20:44:47.013Z,8.10
2019-02-16T20:54:01.822Z,7.90
2019-02-16T20:56:38.620Z,7.90
2019-02-16T20:59:38.669Z,7.90
2019-02-16T21:02:29.585Z,7.90
2019-02-16T21:05:29.148Z,7.80
2019-02-16T21:08:27.619Z,7.80
2019-02-16T21:11:16.395Z,7.80
2019-02-16T21:14:22.442Z,7.70
2019-02-16T21:17:24.197Z,7.70
2019-02-16T21:20:23.095Z,7.70
2019-02-16T21:23:26.337Z,7.70
2019-02-16T21:26:36.310Z,7.70
2019-02-16T21:29:17.588Z,7.70
2019-02-16T21:32:17.701Z,7.60
2019-02-16T21:35:19.005Z,7.60
2019-02-16T21:38:18.821Z,7.50
2019-02-16T21:41:21.655Z,7.50
2019-02-16T21:44:13.785Z,7.40
2019-02-16T21:47:07.016Z,7.40
2019-02-16T21:50:07.280Z,7.40
2019-02-16T21:53:06.069Z,7.30
2019-02-16T21:56:13.672Z,7.30
2019-02-16T21:59:18.875Z,7.20
2019-02-16T22:02:14.008Z,7.20
2019-02-16T22:05:15.867Z,7.10
2019-02-16T22:08:15.997Z,7.10
2019-02-16T22:11:22.918Z,7.00
2019-02-16T22:14:04.435Z,7.00
2019-02-16T22:16:45.755Z,7.00
2019-02-16T22:19:27.182Z,6.90
2019-02-16T22:22:06.695Z,6.90
2019-02-16T22:24:55.452Z,6.90
2019-02-16T22:27:34.965Z,6.90
2019-02-16T22:30:23.753Z,6.80
2019-02-16T22:33:03.537Z,6.80
2019-02-16T22:35:52.248Z,6.80
2019-02-16T22:38:33.900Z,6.80
2019-02-16T22:41:15.240Z,6.70
2019-02-16T22:43:56.613Z,6.70
2019-02-16T22:46:37.840Z,6.70
2019-02-16T22:49:07.613Z,6.70
2019-02-16T22:51:56.336Z,6.70
2019-02-16T22:57:14.470Z,6.60
2019-02-16T23:00:03.182Z,6.60
2019-02-16T23:02:44.573Z,6.60
2019-02-16T23:05:24.157Z,6.60
2019-02-16T23:08:12.854Z,6.50
2019-02-16T23:10:53.986Z,6.50
2019-02-16T23:13:33.625Z,6.50
2019-02-16T23:16:22.397Z,6.50
2019-02-16T23:19:03.601Z,6.50
2019-02-16T23:21:43.438Z,6.50
2019-02-16T23:24:32.175Z,6.50
2019-02-16T23:27:11.914Z,6.50
2019-02-16T23:30:00.692Z,6.50
2019-02-16T23:32:40.483Z,6.50
2019-02-16T23:35:21.689Z,6.50
2019-02-16T23:38:02.533Z,6.50
2019-02-16T23:40:42.280Z,6.50
2019-02-16T23:43:31.036Z,6.40
2019-02-16T23:46:11.807Z,6.40
2019-02-16T23:48:52.819Z,6.40
2019-02-16T23:51:34.161Z,6.40
2019-02-16T23:54:14.008Z,6.40
2019-02-16T23:57:02.944Z,6.40
2019-02-16T23:59:44.048Z,6.40
